Time,TemperatureF,DewpointF,PressureIn,WindDirection,WindDirectionDegrees,WindSpeedMPH,WindSpeedGustMPH,Humidity,HourlyPrecipIn,Conditions,Clouds,dailyrainin,SoftwareType,DateUTC
2013-08-05 00:00:00,56.4,55.0,29.88,South,188,0.0,0.0,95,0.00,RA,,0.00,WeatherDisplay:10.37,2013-08-05 04:00:00,
2013-08-05 00:05:00,56.4,55.0,29.88,South,188,0.0,0.0,95,0.00,RA,,0.00,WeatherDisplay:10.37,2013-08-05 04:05:00,
2013-08-05 00:10:00,56.3,54.9,29.88,South,188,0.0,0.0,95,0.00,CLR,,0.00,WeatherDisplay:10.37,2013-08-05 04:10:00,
2013-08-05 00:15:00,56.2,54.8,29.88,South,188,0.0,0.0,95,0.00,CLR,,0.00,WeatherDisplay:10.37,2013-08-05 04:15:00,
2013-08-05 00:20:00,56.1,54.7,29.88,South,188,0.0,0.0,95,0.00,CLR,,0.00,WeatherDisplay:10.37,2013-08-05 04:20:00,
2013-08-05 00:25:00,56.1,54.7,29.88,SSW,202,0.0,2.0,95,0.00,CLR,,0.00,WeatherDisplay:10.37,2013-08-05 04:25:00,
2013-08-05 00:30:00,56.0,54.6,29.88,WSW,237,0.0,1.0,95,0.00,CLR,,0.00,WeatherDisplay:10.37,2013-08-05 04:30:00,
2013-08-05 00:35:00,56.0,54.6,29.88,WNW,301,0.0,0.0,95,0.00,CLR,,0.00,WeatherDisplay:10.37,2013-08-05 04:35:00,
2013-08-05 00:39:00,56.0,54.6,29.88,WNW,301,0.0,0.0,95,0.00,CLR,,0.00,WeatherDisplay:10.37,2013-08-05 04:39:00,
2013-08-05 00:45:00,55.9,54.5,29.88,WNW,301,0.0,0.0,95,0.00,CLR,,0.00,WeatherDisplay:10.37,2013-08-05 04:45:00,
2013-08-05 00:50:00,55.7,54.3,29.88,WNW,301,0.0,0.0,95,0.00,CLR,,0.00,WeatherDisplay:10.37,2013-08-05 04:50:00,
2013-08-05 00:55:00,55.5,53.8,29.88,WNW,301,0.0,0.0,94,0.00,CLR,,0.00,WeatherDisplay:10.37,2013-08-05 04:55:00,
2013-08-05 01:00:00,55.4,53.7,29.88,WNW,301,0.0,0.0,94,0.00,CLR,,0.00,WeatherDisplay:10.37,2013-08-05 05:00:00,
2013-08-05 01:05:00,55.2,53.5,29.88,WNW,301,0.0,0.0,94,0.00,CLR,,0.00,WeatherDisplay:10.37,2013-08-05 05:05:00,
2013-08-05 01:10:00,55.1,53.4,29.88,WNW,301,0.0,0.0,94,0.00,CLR,,0.00,WeatherDisplay:10.37,2013-08-05 05:10:00,
2013-08-05 01:15:00,55.0,53.6,29.88,WNW,301,0.0,1.0,95,0.00,CLR,,0.00,WeatherDisplay:10.37,2013-08-05 05:15:00,
2013-08-05 01:20:00,54.9,53.2,29.88,NW,307,0.0,0.0,94,0.00,CLR,,0.00,WeatherDisplay:10.37,2013-08-05 05:20:00,
2013-08-05 01:25:00,54.8,53.1,29.88,NW,312,0.0,0.0,94,0.00,CLR,,0.00,WeatherDisplay:10.37,2013-08-05 05:25:00,
2013-08-05 01:30:00,54.8,53.1,29.88,NW,312,0.0,0.0,94,0.00,CLR,,0.00,WeatherDisplay:10.37,2013-08-05 05:30:00,
2013-08-05 01:39:00,54.7,53.0,29.88,NW,312,0.0,0.0,94,0.00,CLR,,0.00,WeatherDisplay:10.37,2013-08-05 05:39:00,
2013-08-05 01:45:00,54.7,53.0,29.88,NW,312,0.0,0.0,94,0.00,CLR,,0.00,WeatherDisplay:10.37,2013-08-05 05:45:00,
2013-08-05 01:50:00,54.6,52.9,29.88,NW,312,0.0,0.0,94,0.00,CLR,,0.00,WeatherDisplay:10.37,2013-08-05 05:50:00,
2013-08-05 01:55:00,54.6,52.9,29.88,NW,312,0.0,0.0,94,0.00,CLR,,0.00,WeatherDisplay:10.37,2013-08-05 05:55:00,
2013-08-05 02:00:00,54.6,52.9,29.88,NW,312,0.0,0.0,94,0.00,CLR,,0.00,WeatherDisplay:10.37,2013-08-05 06:00:00,
2013-08-05 02:05:00,54.6,53.2,29.87,NW,312,0.0,0.0,95,0.00,CLR,,0.00,WeatherDisplay:10.37,2013-08-05 06:05:00,
2013-08-05 02:10:00,54.6,53.2,29.87,NW,312,0.0,2.0,95,0.00,CLR,,0.00,WeatherDisplay:10.37,2013-08-05 06:10:00,
2013-08-05 02:15:00,54.5,53.1,29.87,NW,312,0.0,0.0,95,0.00,CLR,,0.00,WeatherDisplay:10.37,2013-08-05 06:15:00,
2013-08-05 02:20:00,54.4,53.0,29.87,NW,312,0.0,0.0,95,0.00,CLR,,0.00,WeatherDisplay:10.37,2013-08-05 06:20:00,
2013-08-05 02:25:00,54.4,53.0,29.87,NW,312,0.0,1.0,95,0.00,CLR,,0.00,WeatherDisplay:10.37,2013-08-05 06:25:00,
2013-08-05 02:30:00,54.4,53.0,29.87,NW,312,0.0,0.0,95,0.00,CLR,,0.00,WeatherDisplay:10.37,2013-08-05 06:30:00,
2013-08-05 02:39:00,54.3,52.9,29.87,NW,312,0.0,0.0,95,0.00,CLR,,0.00,WeatherDisplay:10.37,2013-08-05 06:39:00,
2013-08-05 02:44:00,54.3,52.9,29.87,NW,312,0.0,0.0,95,0.00,CLR,,0.00,WeatherDisplay:10.37,2013-08-05 06:44:00,
2013-08-05 02:49:00,54.4,53.0,29.87,NW,312,0.0,0.0,95,0.00,CLR,,0.00,WeatherDisplay:10.37,2013-08-05 06:49:00,
2013-08-05 02:55:00,54.4,53.0,29.87,NW,312,0.0,0.0,95,0.00,CLR,,0.00,WeatherDisplay:10.37,2013-08-05 06:55:00,
2013-08-05 03:00:00,54.4,53.0,29.87,NW,312,0.0,0.0,95,0.00,CLR,,0.00,WeatherDisplay:10.37,2013-08-05 07:00:00,
2013-08-05 03:05:00,54.4,53.0,29.87,NW,313,0.0,1.0,95,0.00,CLR,,0.00,WeatherDisplay:10.37,2013-08-05 07:05:00,
2013-08-05 03:10:00,54.3,52.9,29.87,NNE,32,0.0,0.0,95,0.00,CLR,,0.00,WeatherDisplay:10.37,2013-08-05 07:10:00,
2013-08-05 03:14:00,54.3,52.9,29.87,ENE,67,0.0,0.0,95,0.00,CLR,,0.00,WeatherDisplay:10.37,2013-08-05 07:14:00,
2013-08-05 03:20:00,54.2,52.8,29.88,ENE,67,0.0,0.0,95,0.00,CLR,,0.00,WeatherDisplay:10.37,2013-08-05 07:20:00,
2013-08-05 03:25:00,54.1,52.7,29.88,ENE,67,0.0,0.0,95,0.00,CLR,,0.00,WeatherDisplay:10.37,2013-08-05 07:25:00,
2013-08-05 03:30:00,53.9,52.5,29.88,ENE,67,0.0,0.0,95,0.00,CLR,,0.00,WeatherDisplay:10.37,2013-08-05 07:30:00,
2013-08-05 03:35:00,53.8,52.4,29.88,ENE,67,0.0,0.0,95,0.00,CLR,,0.00,WeatherDisplay:10.37,2013-08-05 07:35:00,
2013-08-05 03:40:00,53.6,52.2,29.88,ENE,67,0.0,0.0,95,0.00,CLR,,0.00,WeatherDisplay:10.37,2013-08-05 07:40:00,
2013-08-05 03:44:00,53.5,52.1,29.88,ENE,67,0.0,0.0,95,0.00,CLR,,0.00,WeatherDisplay:10.37,2013-08-05 07:44:00,
2013-08-05 03:50:00,53.3,51.9,29.88,ENE,67,0.0,0.0,95,0.00,CLR,,0.00,WeatherDisplay:10.37,2013-08-05 07:50:00,
2013-08-05 03:55:00,53.2,51.8,29.88,ENE,67,0.0,0.0,95,0.00,CLR,,0.00,WeatherDisplay:10.37,2013-08-05 07:55:00,
2013-08-05 04:00:00,53.2,51.8,29.88,ENE,67,0.0,0.0,95,0.00,CLR,,0.00,WeatherDisplay:10.37,2013-08-05 08:00:00,
2013-08-05 04:05:00,53.0,51.7,29.88,ENE,67,0.0,0.0,95,0.00,CLR,,0.00,WeatherDisplay:10.37,2013-08-05 08:05:00,
2013-08-05 04:09:00,53.0,51.6,29.89,ENE,67,0.0,0.0,95,0.00,CLR,,0.00,WeatherDisplay:10.37,2013-08-05 08:09:00,
2013-08-05 04:15:00,52.9,51.5,29.89,ENE,67,0.0,0.0,95,0.00,CLR,,0.00,WeatherDisplay:10.37,2013-08-05 08:15:00,
2013-08-05 04:20:00,52.7,51.4,29.89,ENE,67,0.0,0.0,95,0.00,CLR,,0.00,WeatherDisplay:10.37,2013-08-05 08:20:00,
2013-08-05 04:24:00,52.7,51.3,29.89,ENE,67,0.0,0.0,95,0.00,CLR,,0.00,WeatherDisplay:10.37,2013-08-05 08:24:00,
2013-08-05 04:30:00,52.6,51.2,29.89,ENE,67,0.0,0.0,95,0.00,CLR,,0.00,WeatherDisplay:10.37,2013-08-05 08:30:00,
2013-08-05 04:35:00,52.5,51.1,29.89,ENE,67,0.0,0.0,95,0.00,CLR,,0.00,WeatherDisplay:10.37,2013-08-05 08:35:00,
2013-08-05 04:40:00,52.4,51.0,29.89,ENE,67,0.0,0.0,95,0.00,CLR,,0.00,WeatherDisplay:10.37,2013-08-05 08:40:00,
2013-08-05 04:45:00,52.2,50.9,29.89,ENE,67,0.0,0.0,95,0.00,CLR,,0.00,WeatherDisplay:10.37,2013-08-05 08:45:00,
2013-08-05 04:50:00,52.2,50.8,29.90,ENE,67,0.0,0.0,95,0.00,CLR,,0.00,WeatherDisplay:10.37,2013-08-05 08:50:00,
2013-08-05 04:55:00,52.0,50.7,29.90,ENE,67,0.0,0.0,95,0.00,CLR,,0.00,WeatherDisplay:10.37,2013-08-05 08:55:00,
2013-08-05 05:00:00,51.9,50.5,29.90,ENE,67,0.0,0.0,95,0.00,CLR,,0.00,WeatherDisplay:10.37,2013-08-05 09:00:00,
2013-08-05 05:05:00,51.9,50.5,29.90,ENE,67,0.0,0.0,95,0.00,CLR,,0.00,WeatherDisplay:10.37,2013-08-05 09:05:00,
2013-08-05 05:10:00,51.8,50.4,29.91,ENE,67,0.0,1.0,95,0.00,CLR,,0.00,WeatherDisplay:10.37,2013-08-05 09:10:00,
2013-08-05 05:14:00,51.7,50.3,29.91,ENE,67,0.0,0.0,95,0.00,CLR,,0.00,WeatherDisplay:10.37,2013-08-05 09:14:00,
2013-08-05 05:19:00,51.5,50.1,29.91,ENE,67,0.0,0.0,95,0.00,CLR,,0.00,WeatherDisplay:10.37,2013-08-05 09:19:00,
2013-08-05 05:24:00,51.4,50.0,29.91,ENE,67,0.0,0.0,95,0.00,CLR,,0.00,WeatherDisplay:10.37,2013-08-05 09:24:00,
2013-08-05 05:30:00,51.4,50.0,29.91,ENE,67,0.0,0.0,95,0.00,CLR,,0.00,WeatherDisplay:10.37,2013-08-05 09:30:00,
2013-08-05 05:34:00,51.3,49.9,29.92,ENE,67,0.0,0.0,95,0.00,CLR,,0.00,WeatherDisplay:10.37,2013-08-05 09:34:00,
2013-08-05 05:39:00,51.2,49.8,29.92,ENE,67,0.0,0.0,95,0.00,CLR,,0.00,WeatherDisplay:10.37,2013-08-05 09:39:00,
2013-08-05 05:45:00,51.1,49.8,29.92,ENE,67,0.0,0.0,95,0.00,CLR,,0.00,WeatherDisplay:10.37,2013-08-05 09:45:00,
2013-08-05 05:49:00,51.1,49.7,29.92,ENE,67,0.0,0.0,95,0.00,CLR,,0.00,WeatherDisplay:10.37,2013-08-05 09:49:00,
2013-08-05 05:55:00,51.0,49.6,29.92,ENE,67,0.0,0.0,95,0.00,CLR,,0.00,WeatherDisplay:10.37,2013-08-05 09:55:00,
2013-08-05 06:00:00,51.0,49.6,29.92,ENE,67,0.0,0.0,95,0.00,CLR,,0.00,WeatherDisplay:10.37,2013-08-05 10:00:00,
2013-08-05 06:05:00,51.0,49.9,29.92,ENE,67,0.0,0.0,96,0.00,CLR,,0.00,WeatherDisplay:10.37,2013-08-05 10:05:00,
2013-08-05 06:14:00,51.1,50.0,29.93,ENE,67,0.0,0.0,96,0.00,CLR,,0.00,WeatherDisplay:10.37,2013-08-05 10:14:00,
2013-08-05 06:25:00,51.3,50.2,29.93,ENE,67,0.0,0.0,96,0.00,CLR,,0.00,WeatherDisplay:10.37,2013-08-05 10:25:00,
2013-08-05 06:30:00,51.3,50.2,29.93,ENE,67,0.0,0.0,96,0.00,CLR,,0.00,WeatherDisplay:10.37,2013-08-05 10:30:00,
2013-08-05 06:35:00,51.4,50.3,29.93,ENE,67,0.0,0.0,96,0.00,CLR,,0.00,WeatherDisplay:10.37,2013-08-05 10:35:00,
2013-08-05 06:40:00,51.5,50.4,29.93,ENE,67,0.0,0.0,96,0.00,CLR,,0.00,WeatherDisplay:10.37,2013-08-05 10:40:00,
2013-08-05 06:44:00,51.5,50.4,29.93,ENE,67,0.0,0.0,96,0.00,CLR,,0.00,WeatherDisplay:10.37,2013-08-05 10:44:00,
2013-08-05 06:50:00,51.6,50.5,29.93,ENE,67,0.0,0.0,96,0.00,CLR,,0.00,WeatherDisplay:10.37,2013-08-05 10:50:00,
2013-08-05 07:00:00,52.0,50.9,29.93,ENE,67,0.0,0.0,96,0.00,CLR,,0.00,WeatherDisplay:10.37,2013-08-05 11:00:00,
2013-08-05 07:10:00,52.5,51.4,29.93,ENE,68,0.0,2.0,96,0.00,CLR,,0.00,WeatherDisplay:10.37,2013-08-05 11:10:00,
2013-08-05 07:15:00,52.9,51.8,29.93,ENE,68,0.0,1.0,96,0.00,CLR,,0.00,WeatherDisplay:10.37,2013-08-05 11:15:00,
2013-08-05 07:20:00,53.2,52.1,29.93,NE,46,0.0,2.0,96,0.00,CLR,,0.00,WeatherDisplay:10.37,2013-08-05 11:20:00,
2013-08-05 07:24:00,53.6,52.5,29.93,NE,37,0.0,1.0,96,0.00,CLR,,0.00,WeatherDisplay:10.37,2013-08-05 11:24:00,
2013-08-05 07:29:00,53.9,53.1,29.93,East,79,1.0,2.0,97,0.00,CLR,,0.00,WeatherDisplay:10.37,2013-08-05 11:29:00,
2013-08-05 07:35:00,54.3,53.1,29.93,East,91,1.0,3.0,96,0.00,CLR,,0.00,WeatherDisplay:10.37,2013-08-05 11:35:00,
2013-08-05 07:40:00,54.6,53.7,29.93,NNW,332,0.0,3.0,97,0.00,CLR,,0.00,WeatherDisplay:10.37,2013-08-05 11:40:00,
2013-08-05 07:45:00,54.8,53.7,29.93,WNW,287,0.0,3.0,96,0.00,CLR,,0.00,WeatherDisplay:10.37,2013-08-05 11:45:00,
2013-08-05 07:50:00,55.1,54.3,29.94,NNE,26,0.0,3.0,97,0.00,CLR,,0.00,WeatherDisplay:10.37,2013-08-05 11:50:00,
2013-08-05 07:55:00,55.6,54.5,29.94,East,82,0.0,2.0,96,0.00,CLR,,0.00,WeatherDisplay:10.37,2013-08-05 11:55:00,
2013-08-05 08:05:00,56.3,54.3,29.94,WNW,303,0.0,3.0,93,0.00,FEW,,0.00,WeatherDisplay:10.37,2013-08-05 12:05:00,
2013-08-05 08:10:00,56.7,54.4,29.94,NNE,18,1.0,3.0,92,0.00,FEW,,0.00,WeatherDisplay:10.37,2013-08-05 12:10:00,
2013-08-05 08:15:00,57.1,55.1,29.94,SSW,208,2.0,4.0,93,0.00,FEW,,0.00,WeatherDisplay:10.37,2013-08-05 12:15:00,
2013-08-05 08:20:00,57.5,54.6,29.94,SW,214,1.0,4.0,90,0.00,FEW,,0.00,WeatherDisplay:10.37,2013-08-05 12:20:00,
2013-08-05 08:25:00,58.0,55.4,29.94,WSW,238,0.0,4.0,91,0.00,FEW,,0.00,WeatherDisplay:10.37,2013-08-05 12:25:00,
2013-08-05 08:29:00,58.5,54.6,29.94,South,189,0.0,3.0,87,0.00,FEW,,0.00,WeatherDisplay:10.37,2013-08-05 12:29:00,
2013-08-05 08:35:00,58.9,54.7,29.94,WSW,243,1.0,4.0,86,0.00,FEW,,0.00,WeatherDisplay:10.37,2013-08-05 12:35:00,
2013-08-05 08:39:00,59.1,54.9,29.94,West,276,0.0,6.0,86,0.00,FEW,,0.00,WeatherDisplay:10.37,2013-08-05 12:39:00,
2013-08-05 08:50:00,59.7,54.2,29.94,WNW,284,1.0,7.0,82,0.00,FEW,,0.00,WeatherDisplay:10.37,2013-08-05 12:50:00,
2013-08-05 08:55:00,60.0,54.5,29.94,SW,215,1.0,3.0,82,0.00,FEW,,0.00,WeatherDisplay:10.37,2013-08-05 12:55:00,
2013-08-05 08:59:00,60.2,54.3,29.94,SW,235,2.0,6.0,81,0.00,FEW,,0.00,WeatherDisplay:10.37,2013-08-05 12:59:00,
2013-08-05 09:05:00,60.4,52.1,29.94,West,274,5.0,7.0,74,0.00,FEW,,0.00,WeatherDisplay:10.37,2013-08-05 13:05:00,
2013-08-05 09:15:00,60.9,51.1,29.94,WNW,295,1.0,5.0,70,0.00,FEW,,0.00,WeatherDisplay:10.37,2013-08-05 13:15:00,
2013-08-05 09:20:00,61.3,51.0,29.94,WNW,287,1.0,6.0,69,0.00,FEW,,0.00,WeatherDisplay:10.37,2013-08-05 13:20:00,
2013-08-05 09:24:00,61.4,49.1,29.94,West,266,2.0,7.0,64,0.00,FEW,,0.00,WeatherDisplay:10.37,2013-08-05 13:24:00,
2013-08-05 09:30:00,61.5,49.6,29.94,West,277,2.0,5.0,65,0.00,FEW,,0.00,WeatherDisplay:10.37,2013-08-05 13:30:00,
2013-08-05 09:35:00,61.6,48.4,29.94,WNW,284,2.0,8.0,62,0.00,FEW,,0.00,WeatherDisplay:10.37,2013-08-05 13:35:00,
2013-08-05 09:45:00,62.1,47.6,29.94,NW,307,2.0,9.0,59,0.00,FEW,,0.00,WeatherDisplay:10.37,2013-08-05 13:45:00,
2013-08-05 09:50:00,62.4,48.8,29.94,NW,320,1.0,9.0,61,0.00,FEW,,0.00,WeatherDisplay:10.37,2013-08-05 13:50:00,
2013-08-05 09:55:00,62.8,48.3,29.95,NW,316,2.0,4.0,59,0.00,FEW,,0.00,WeatherDisplay:10.37,2013-08-05 13:55:00,
2013-08-05 10:00:00,63.0,48.9,29.94,North,354,1.0,5.0,60,0.00,FEW,,0.00,WeatherDisplay:10.37,2013-08-05 14:00:00,
2013-08-05 10:05:00,63.2,50.0,29.94,NNW,346,1.0,4.0,62,0.00,FEW,,0.00,WeatherDisplay:10.37,2013-08-05 14:05:00,
2013-08-05 10:10:00,63.4,48.8,29.94,WNW,285,2.0,7.0,59,0.00,FEW,,0.00,WeatherDisplay:10.37,2013-08-05 14:10:00,
2013-08-05 10:15:00,63.2,47.3,29.94,West,265,2.0,7.0,56,0.00,FEW,,0.00,WeatherDisplay:10.37,2013-08-05 14:15:00,
2013-08-05 10:20:00,63.2,49.1,29.94,West,272,2.0,4.0,60,0.00,FEW,,0.00,WeatherDisplay:10.37,2013-08-05 14:20:00,
2013-08-05 10:25:00,63.3,48.7,29.95,WNW,294,1.0,6.0,59,0.00,FEW,,0.00,WeatherDisplay:10.37,2013-08-05 14:25:00,
2013-08-05 10:44:00,63.6,49.5,29.95,WNW,293,1.0,5.0,60,0.00,FEW,,0.00,WeatherDisplay:10.37,2013-08-05 14:44:00,
2013-08-05 10:54:00,64.3,47.3,29.94,WNW,297,2.0,6.0,54,0.00,FEW,,0.00,WeatherDisplay:10.37,2013-08-05 14:54:00,
2013-08-05 11:00:00,64.5,49.8,29.94,WNW,284,1.0,5.0,59,0.00,FEW,,0.00,WeatherDisplay:10.37,2013-08-05 15:00:00,
2013-08-05 11:05:00,64.7,48.2,29.94,NW,312,2.0,7.0,55,0.00,FEW,,0.00,WeatherDisplay:10.37,2013-08-05 15:05:00,
2013-08-05 11:09:00,64.8,47.8,29.95,NW,326,1.0,4.0,54,0.00,FEW,,0.00,WeatherDisplay:10.37,2013-08-05 15:09:00,
2013-08-05 11:15:00,64.9,48.3,29.95,West,277,1.0,8.0,55,0.00,FEW,,0.00,WeatherDisplay:10.37,2013-08-05 15:15:00,
2013-08-05 11:20:00,65.0,47.9,29.95,WNW,301,2.0,8.0,54,0.00,FEW,,0.00,WeatherDisplay:10.37,2013-08-05 15:20:00,
2013-08-05 11:24:00,65.3,47.2,29.95,NNW,344,3.0,6.0,52,0.00,FEW,,0.00,WeatherDisplay:10.37,2013-08-05 15:24:00,
2013-08-05 11:35:00,66.1,48.0,29.95,WNW,303,3.0,7.0,52,0.00,FEW,,0.00,WeatherDisplay:10.37,2013-08-05 15:35:00,
2013-08-05 11:40:00,66.2,49.1,29.95,NW,305,2.0,5.0,54,0.00,FEW,,0.00,WeatherDisplay:10.37,2013-08-05 15:40:00,
2013-08-05 11:44:00,66.5,49.8,29.95,WNW,296,3.0,7.0,55,0.00,FEW,,0.00,WeatherDisplay:10.37,2013-08-05 15:44:00,
2013-08-05 11:50:00,66.6,48.4,29.94,NW,311,3.0,7.0,52,0.00,FEW,,0.00,WeatherDisplay:10.37,2013-08-05 15:50:00,
2013-08-05 12:00:00,67.1,48.9,29.95,NW,317,1.0,12.0,52,0.00,FEW,,0.00,WeatherDisplay:10.37,2013-08-05 16:00:00,
2013-08-05 12:10:00,67.4,48.1,29.94,West,276,2.0,12.0,50,0.00,FEW,,0.00,WeatherDisplay:10.37,2013-08-05 16:10:00,
2013-08-05 12:15:00,67.4,48.1,29.94,West,265,2.0,7.0,50,0.00,FEW,,0.00,WeatherDisplay:10.37,2013-08-05 16:15:00,
2013-08-05 12:19:00,67.5,49.8,29.94,West,270,2.0,5.0,53,0.00,FEW,,0.00,WeatherDisplay:10.37,2013-08-05 16:19:00,
2013-08-05 12:25:00,68.0,50.7,29.94,NW,312,1.0,4.0,54,0.00,FEW,,0.00,WeatherDisplay:10.37,2013-08-05 16:25:00,
2013-08-05 12:30:00,68.4,49.0,29.94,WNW,292,2.0,9.0,50,0.00,FEW,,0.00,WeatherDisplay:10.37,2013-08-05 16:30:00,
2013-08-05 12:35:00,68.3,49.5,29.94,West,277,1.0,7.0,51,0.00,FEW,,0.00,WeatherDisplay:10.37,2013-08-05 16:35:00,
2013-08-05 12:55:00,69.2,49.8,29.93,North,3,1.0,4.0,50,0.00,FEW,,0.00,WeatherDisplay:10.37,2013-08-05 16:55:00,
2013-08-05 13:00:00,69.5,48.9,29.93,NW,312,2.0,5.0,48,0.00,FEW,,0.00,WeatherDisplay:10.37,2013-08-05 17:00:00,
2013-08-05 13:04:00,69.7,50.8,29.93,WNW,284,1.0,4.0,51,0.00,CLR,,0.00,WeatherDisplay:10.37,2013-08-05 17:04:00,
2013-08-05 13:10:00,69.9,49.3,29.93,NNW,335,2.0,6.0,48,0.00,CLR,,0.00,WeatherDisplay:10.37,2013-08-05 17:10:00,
2013-08-05 13:15:00,70.2,47.9,29.93,NNW,340,2.0,7.0,45,0.00,CLR,,0.00,WeatherDisplay:10.37,2013-08-05 17:15:00,
2013-08-05 13:20:00,70.3,48.5,29.93,NW,324,1.0,8.0,46,0.00,CLR,,0.00,WeatherDisplay:10.37,2013-08-05 17:20:00,
2013-08-05 13:25:00,70.3,49.1,29.93,WNW,292,1.0,7.0,47,0.00,CLR,,0.00,WeatherDisplay:10.37,2013-08-05 17:25:00,
2013-08-05 13:29:00,70.6,49.4,29.92,WNW,297,1.0,4.0,47,0.00,CLR,,0.00,WeatherDisplay:10.37,2013-08-05 17:29:00,
2013-08-05 13:40:00,71.2,48.8,29.93,WNW,302,2.0,7.0,45,0.00,CLR,,0.00,WeatherDisplay:10.37,2013-08-05 17:40:00,
2013-08-05 13:45:00,71.3,47.0,29.92,WNW,301,2.0,7.0,42,0.00,CLR,,0.00,WeatherDisplay:10.37,2013-08-05 17:45:00,
2013-08-05 13:50:00,71.2,49.4,29.92,West,267,0.0,4.0,46,0.00,CLR,,0.00,WeatherDisplay:10.37,2013-08-05 17:50:00,
2013-08-05 14:00:00,71.7,47.4,29.93,NNE,20,2.0,5.0,42,0.00,CLR,,0.00,WeatherDisplay:10.37,2013-08-05 18:00:00,
2013-08-05 14:05:00,72.0,48.3,29.93,WNW,283,2.0,6.0,43,0.00,CLR,,0.00,WeatherDisplay:10.37,2013-08-05 18:05:00,
2013-08-05 14:10:00,72.2,47.8,29.93,WNW,300,2.0,4.0,42,0.00,CLR,,0.00,WeatherDisplay:10.37,2013-08-05 18:10:00,
2013-08-05 14:15:00,72.6,48.1,29.92,WNW,286,2.0,6.0,42,0.00,CLR,,0.00,WeatherDisplay:10.37,2013-08-05 18:15:00,
2013-08-05 14:20:00,72.7,48.9,29.92,NW,309,1.0,6.0,43,0.00,CLR,,0.00,WeatherDisplay:10.37,2013-08-05 18:20:00,
2013-08-05 14:25:00,73.0,48.5,29.92,WNW,295,2.0,5.0,42,0.00,CLR,,0.00,WeatherDisplay:10.37,2013-08-05 18:25:00,
2013-08-05 14:30:00,73.3,46.8,29.92,WNW,295,2.0,5.0,39,0.00,CLR,,0.00,WeatherDisplay:10.37,2013-08-05 18:30:00,
2013-08-05 14:35:00,73.7,48.5,29.92,WNW,301,1.0,5.0,41,0.00,CLR,,0.00,WeatherDisplay:10.37,2013-08-05 18:35:00,
2013-08-05 14:40:00,73.8,47.3,29.92,WNW,298,1.0,4.0,39,0.00,CLR,,0.00,WeatherDisplay:10.37,2013-08-05 18:40:00,
2013-08-05 14:45:00,73.8,47.3,29.92,NNW,341,3.0,12.0,39,0.00,CLR,,0.00,WeatherDisplay:10.37,2013-08-05 18:45:00,
2013-08-05 14:50:00,73.8,47.3,29.92,North,353,1.0,5.0,39,0.00,CLR,,0.00,WeatherDisplay:10.37,2013-08-05 18:50:00,
2013-08-05 14:55:00,73.7,46.5,29.92,WNW,289,1.0,5.0,38,0.00,CLR,,0.00,WeatherDisplay:10.37,2013-08-05 18:55:00,
2013-08-05 15:00:00,73.9,46.7,29.93,NNW,331,2.0,4.0,38,0.00,CLR,,0.00,WeatherDisplay:10.37,2013-08-05 19:00:00,
2013-08-05 15:05:00,74.0,45.3,29.92,NNW,330,1.0,4.0,36,0.00,CLR,,0.00,WeatherDisplay:10.37,2013-08-05 19:05:00,
2013-08-05 15:10:00,74.0,48.1,29.92,West,279,1.0,3.0,40,0.00,CLR,,0.00,WeatherDisplay:10.37,2013-08-05 19:10:00,
2013-08-05 15:15:00,73.7,45.8,29.92,West,263,1.0,6.0,37,0.00,CLR,,0.00,WeatherDisplay:10.37,2013-08-05 19:15:00,
2013-08-05 15:20:00,73.3,45.4,29.93,WNW,297,2.0,4.0,37,0.00,CLR,,0.00,WeatherDisplay:10.37,2013-08-05 19:20:00,
2013-08-05 15:25:00,73.4,45.5,29.93,NW,321,1.0,4.0,37,0.00,CLR,,0.00,WeatherDisplay:10.37,2013-08-05 19:25:00,
2013-08-05 15:35:00,72.9,44.4,29.93,WNW,288,1.0,6.0,36,0.00,CLR,,0.00,WeatherDisplay:10.37,2013-08-05 19:35:00,
2013-08-05 15:40:00,72.8,48.3,29.93,West,271,1.0,8.0,42,0.00,CLR,,0.00,WeatherDisplay:10.37,2013-08-05 19:40:00,
2013-08-05 15:45:00,72.5,44.7,29.93,West,269,1.0,4.0,37,0.00,CLR,,0.00,WeatherDisplay:10.37,2013-08-05 19:45:00,
2013-08-05 15:50:00,72.4,46.1,29.93,West,280,1.0,4.0,39,0.00,CLR,,0.00,WeatherDisplay:10.37,2013-08-05 19:50:00,
2013-08-05 16:00:00,72.2,46.5,29.93,WSW,251,3.0,6.0,40,0.00,CLR,,0.00,WeatherDisplay:10.37,2013-08-05 20:00:00,
2013-08-05 16:05:00,72.4,46.7,29.93,West,259,1.0,4.0,40,0.00,CLR,,0.00,WeatherDisplay:10.37,2013-08-05 20:05:00,
2013-08-05 16:10:00,72.6,48.2,29.93,NNW,328,1.0,7.0,42,0.00,CLR,,0.00,WeatherDisplay:10.37,2013-08-05 20:10:00,
2013-08-05 16:15:00,73.0,45.8,29.93,NW,316,1.0,7.0,38,0.00,CLR,,0.00,WeatherDisplay:10.37,2013-08-05 20:15:00,
2013-08-05 16:20:00,73.1,46.7,29.93,WNW,298,2.0,4.0,39,0.00,CLR,,0.00,WeatherDisplay:10.37,2013-08-05 20:20:00,
2013-08-05 16:35:00,73.2,42.4,29.93,NNW,338,1.0,6.0,33,0.00,CLR,,0.00,WeatherDisplay:10.37,2013-08-05 20:35:00,
2013-08-05 16:40:00,73.2,44.7,29.93,WNW,302,1.0,6.0,36,0.00,CLR,,0.00,WeatherDisplay:10.37,2013-08-05 20:40:00,
2013-08-05 16:45:00,73.0,43.7,29.93,NW,322,1.0,5.0,35,0.00,CLR,,0.00,WeatherDisplay:10.37,2013-08-05 20:45:00,
2013-08-05 16:50:00,72.8,42.8,29.93,NNW,327,1.0,3.0,34,0.00,CLR,,0.00,WeatherDisplay:10.37,2013-08-05 20:50:00,
2013-08-05 17:00:00,72.2,43.8,29.93,West,270,3.0,6.0,36,0.00,CLR,,0.00,WeatherDisplay:10.37,2013-08-05 21:00:00,
2013-08-05 17:05:00,71.9,42.0,29.93,WNW,296,0.0,4.0,34,0.00,CLR,,0.00,WeatherDisplay:10.37,2013-08-05 21:05:00,
2013-08-05 17:10:00,71.7,46.1,29.93,WNW,293,1.0,3.0,40,0.00,CLR,,0.00,WeatherDisplay:10.37,2013-08-05 21:10:00,
2013-08-05 17:15:00,71.4,45.1,29.93,NW,316,1.0,3.0,39,0.00,CLR,,0.00,WeatherDisplay:10.37,2013-08-05 21:15:00,
2013-08-05 17:20:00,71.2,45.0,29.93,NW,314,1.0,3.0,39,0.00,CLR,,0.00,WeatherDisplay:10.37,2013-08-05 21:20:00,
2013-08-05 17:25:00,71.3,47.0,29.93,WNW,295,0.0,4.0,42,0.00,CLR,,0.00,WeatherDisplay:10.37,2013-08-05 21:25:00,
2013-08-05 17:30:00,71.2,46.3,29.93,SW,219,0.0,3.0,41,0.00,CLR,,0.00,WeatherDisplay:10.37,2013-08-05 21:30:00,
2013-08-05 17:35:00,71.1,49.3,29.93,SW,224,1.0,2.0,46,0.00,CLR,,0.00,WeatherDisplay:10.37,2013-08-05 21:35:00,
2013-08-05 17:40:00,70.8,45.9,29.94,NW,321,0.0,3.0,41,0.00,CLR,,0.00,WeatherDisplay:10.37,2013-08-05 21:40:00,
2013-08-05 17:45:00,70.8,48.4,29.94,NNW,332,1.0,4.0,45,0.00,CLR,,0.00,WeatherDisplay:10.37,2013-08-05 21:45:00,
2013-08-05 17:55:00,70.6,42.3,29.94,NW,309,1.0,6.0,36,0.00,CLR,,0.00,WeatherDisplay:10.37,2013-08-05 21:55:00,
2013-08-05 18:00:00,70.5,45.0,29.94,SSW,194,0.0,2.0,40,0.00,CLR,,0.00,WeatherDisplay:10.37,2013-08-05 22:00:00,
2013-08-05 18:05:00,70.3,44.9,29.94,West,273,0.0,3.0,40,0.00,CLR,,0.00,WeatherDisplay:10.37,2013-08-05 22:05:00,
2013-08-05 18:10:00,70.3,45.5,29.94,WNW,288,0.0,4.0,41,0.00,CLR,,0.00,WeatherDisplay:10.37,2013-08-05 22:10:00,
2013-08-05 18:15:00,70.2,44.7,29.95,West,269,0.0,2.0,40,0.00,CLR,,0.00,WeatherDisplay:10.37,2013-08-05 22:15:00,
2013-08-05 18:20:00,70.0,43.3,29.95,WSW,258,0.0,2.0,38,0.00,CLR,,0.00,WeatherDisplay:10.37,2013-08-05 22:20:00,
2013-08-05 18:25:00,69.8,44.3,29.95,SW,226,0.0,3.0,40,0.00,CLR,,0.00,WeatherDisplay:10.37,2013-08-05 22:25:00,
2013-08-05 18:35:00,69.4,43.4,29.95,WSW,254,0.0,0.0,39,0.00,CLR,,0.00,WeatherDisplay:10.37,2013-08-05 22:35:00,
2013-08-05 18:40:00,69.2,46.4,29.95,SW,234,0.0,2.0,44,0.00,CLR,,0.00,WeatherDisplay:10.37,2013-08-05 22:40:00,
2013-08-05 18:45:00,69.0,43.7,29.95,SW,234,0.0,2.0,40,0.00,CLR,,0.00,WeatherDisplay:10.37,2013-08-05 22:45:00,
2013-08-05 18:50:00,68.7,45.9,29.96,SSW,195,0.0,1.0,44,0.00,CLR,,0.00,WeatherDisplay:10.37,2013-08-05 22:50:00,
2013-08-05 19:00:00,68.1,42.9,29.96,SSW,201,0.0,0.0,40,0.00,CLR,,0.00,WeatherDisplay:10.37,2013-08-05 23:00:00,
2013-08-05 19:05:00,68.0,42.7,29.96,SW,228,0.0,0.0,40,0.00,CLR,,0.00,WeatherDisplay:10.37,2013-08-05 23:05:00,
2013-08-05 19:15:00,67.6,43.7,29.97,SW,229,0.0,0.0,42,0.00,CLR,,0.00,WeatherDisplay:10.37,2013-08-05 23:15:00,
2013-08-05 19:30:00,66.4,45.5,29.97,SW,229,0.0,0.0,47,0.00,CLR,,0.00,WeatherDisplay:10.37,2013-08-05 23:30:00,
2013-08-05 19:35:00,66.0,50.8,29.97,SW,229,0.0,0.0,58,0.00,CLR,,0.00,WeatherDisplay:10.37,2013-08-05 23:35:00,
2013-08-05 19:50:00,64.1,49.4,29.98,SW,229,0.0,0.0,59,0.00,CLR,,0.00,WeatherDisplay:10.37,2013-08-05 23:50:00,
2013-08-05 19:55:00,63.6,47.1,29.98,SW,229,0.0,0.0,55,0.00,CLR,,0.00,WeatherDisplay:10.37,2013-08-05 23:55:00,
2013-08-05 20:00:00,63.4,51.5,29.98,SW,229,0.0,0.0,65,0.00,CLR,,0.00,WeatherDisplay:10.37,2013-08-06 00:00:00,
2013-08-05 20:05:00,63.2,51.2,29.98,SW,229,0.0,0.0,65,0.00,CLR,,0.00,WeatherDisplay:10.37,2013-08-06 00:05:00,
2013-08-05 20:10:00,62.7,52.3,29.98,SW,229,0.0,0.0,69,0.00,CLR,,0.00,WeatherDisplay:10.37,2013-08-06 00:10:00,
2013-08-05 20:15:00,62.1,53.0,29.99,SW,229,0.0,0.0,72,0.00,CLR,,0.00,WeatherDisplay:10.37,2013-08-06 00:15:00,
2013-08-05 20:20:00,61.7,51.5,29.99,SW,229,0.0,0.0,69,0.00,CLR,,0.00,WeatherDisplay:10.37,2013-08-06 00:20:00,
2013-08-05 20:25:00,61.3,51.4,29.99,SW,229,0.0,0.0,70,0.00,CLR,,0.00,WeatherDisplay:10.37,2013-08-06 00:25:00,
2013-08-05 20:30:00,60.8,49.4,29.99,SW,229,0.0,0.0,66,0.00,CLR,,0.00,WeatherDisplay:10.37,2013-08-06 00:30:00,
2013-08-05 20:35:00,60.5,49.5,30.00,SW,229,0.0,0.0,67,0.00,CLR,,0.00,WeatherDisplay:10.37,2013-08-06 00:35:00,
2013-08-05 20:45:00,59.8,49.2,30.00,SW,229,0.0,0.0,68,0.00,CLR,,0.00,WeatherDisplay:10.37,2013-08-06 00:45:00,
2013-08-05 20:50:00,59.3,51.4,30.01,SW,229,0.0,0.0,75,0.00,CLR,,0.00,WeatherDisplay:10.37,2013-08-06 00:50:00,
2013-08-05 20:55:00,58.7,50.4,30.01,SW,229,0.0,0.0,74,0.00,CLR,,0.00,WeatherDisplay:10.37,2013-08-06 00:55:00,
2013-08-05 21:00:00,58.1,49.9,30.01,SW,229,0.0,0.0,74,0.00,CLR,,0.00,WeatherDisplay:10.37,2013-08-06 01:00:00,
2013-08-05 21:05:00,57.8,49.9,30.01,SW,229,0.0,0.0,75,0.00,CLR,,0.00,WeatherDisplay:10.37,2013-08-06 01:05:00,
2013-08-05 21:10:00,57.4,50.6,30.02,SW,229,0.0,0.0,78,0.00,CLR,,0.00,WeatherDisplay:10.37,2013-08-06 01:10:00,
2013-08-05 21:15:00,57.1,50.3,30.02,SW,229,0.0,0.0,78,0.00,CLR,,0.00,WeatherDisplay:10.37,2013-08-06 01:15:00,
2013-08-05 21:20:00,56.7,49.6,30.02,SW,229,0.0,0.0,77,0.00,CLR,,0.00,WeatherDisplay:10.37,2013-08-06 01:20:00,
2013-08-05 21:25:00,56.4,49.3,30.02,SW,229,0.0,0.0,77,0.00,CLR,,0.00,WeatherDisplay:10.37,2013-08-06 01:25:00,
2013-08-05 21:30:00,56.1,50.0,30.02,SW,229,0.0,0.0,80,0.00,CLR,,0.00,WeatherDisplay:10.37,2013-08-06 01:30:00,
2013-08-05 21:35:00,55.7,49.3,30.02,SW,229,0.0,0.0,79,0.00,CLR,,0.00,WeatherDisplay:10.37,2013-08-06 01:35:00,
2013-08-05 21:40:00,55.4,49.0,30.02,SW,229,0.0,0.0,79,0.00,CLR,,0.00,WeatherDisplay:10.37,2013-08-06 01:40:00,
2013-08-05 21:45:00,55.1,49.4,30.03,SW,229,0.0,0.0,81,0.00,CLR,,0.00,WeatherDisplay:10.37,2013-08-06 01:45:00,
2013-08-05 21:50:00,55.0,49.2,30.03,SW,229,0.0,0.0,81,0.00,CLR,,0.00,WeatherDisplay:10.37,2013-08-06 01:50:00,
2013-08-05 21:55:00,54.6,49.2,30.03,SW,229,0.0,0.0,82,0.00,CLR,,0.00,WeatherDisplay:10.37,2013-08-06 01:55:00,
2013-08-05 22:05:00,54.2,49.5,30.03,SW,229,0.0,0.0,84,0.00,CLR,,0.00,WeatherDisplay:10.37,2013-08-06 02:05:00,
2013-08-05 22:10:00,54.0,49.0,30.02,SW,229,0.0,0.0,83,0.00,CLR,,0.00,WeatherDisplay:10.37,2013-08-06 02:10:00,
2013-08-05 22:15:00,53.9,49.5,30.03,SW,229,0.0,0.0,85,0.00,CLR,,0.00,WeatherDisplay:10.37,2013-08-06 02:15:00,
2013-08-05 22:20:00,53.7,49.3,30.03,SW,229,0.0,0.0,85,0.00,CLR,,0.00,WeatherDisplay:10.37,2013-08-06 02:20:00,
2013-08-05 22:25:00,53.6,49.2,30.03,SW,229,0.0,0.0,85,0.00,CLR,,0.00,WeatherDisplay:10.37,2013-08-06 02:25:00,
2013-08-05 22:30:00,53.4,49.3,30.02,SW,229,0.0,0.0,86,0.00,CLR,,0.00,WeatherDisplay:10.37,2013-08-06 02:30:00,
2013-08-05 22:35:00,53.2,49.4,30.02,SW,229,0.0,0.0,87,0.00,CLR,,0.00,WeatherDisplay:10.37,2013-08-06 02:35:00,
2013-08-05 22:40:00,53.0,49.3,30.02,SW,229,0.0,0.0,87,0.00,CLR,,0.00,WeatherDisplay:10.37,2013-08-06 02:40:00,
2013-08-05 22:45:00,52.9,49.1,30.02,SW,229,0.0,0.0,87,0.00,CLR,,0.00,WeatherDisplay:10.37,2013-08-06 02:45:00,
2013-08-05 22:50:00,52.7,49.2,30.02,SW,229,0.0,0.0,88,0.00,CLR,,0.00,WeatherDisplay:10.37,2013-08-06 02:50:00,
2013-08-05 23:00:00,52.3,48.9,30.02,SW,229,0.0,0.0,88,0.00,CLR,,0.00,WeatherDisplay:10.37,2013-08-06 03:00:00,
2013-08-05 23:10:00,52.0,48.9,30.03,SW,229,0.0,0.0,89,0.00,CLR,,0.00,WeatherDisplay:10.37,2013-08-06 03:10:00,
2013-08-05 23:15:00,51.8,48.6,30.03,SW,229,0.0,0.0,89,0.00,CLR,,0.00,WeatherDisplay:10.37,2013-08-06 03:15:00,
2013-08-05 23:30:00,51.4,48.6,30.03,SW,229,0.0,0.0,90,0.00,CLR,,0.00,WeatherDisplay:10.37,2013-08-06 03:30:00,
2013-08-05 23:35:00,51.3,48.5,30.03,SW,229,0.0,0.0,90,0.00,CLR,,0.00,WeatherDisplay:10.37,2013-08-06 03:35:00,
2013-08-05 23:40:00,51.2,48.7,30.04,SW,229,0.0,0.0,91,0.00,CLR,,0.00,WeatherDisplay:10.37,2013-08-06 03:40:00,
2013-08-05 23:45:00,51.1,48.6,30.04,SW,229,0.0,0.0,91,0.00,CLR,,0.00,WeatherDisplay:10.37,2013-08-06 03:45:00,
2013-08-05 23:55:00,50.9,48.4,30.04,SW,229,0.0,0.0,91,0.00,CLR,,0.00,WeatherDisplay:10.37,2013-08-06 03:55:00,